createdAt,value
2022-09-03T00:00:34.996Z,101652.38
2022-09-03T00:03:31.644Z,101653.31
2022-09-03T00:06:16.833Z,101657.03
2022-09-03T00:08:50.901Z,101655.56
2022-09-03T00:11:26.014Z,101657.50
2022-09-03T00:14:04.608Z,101656.88
2022-09-03T00:16:54.733Z,101661.31
2022-09-03T00:19:27.075Z,101657.25
2022-09-03T00:21:59.576Z,101660.75
2022-09-03T00:24:34.494Z,101662.56
2022-09-03T00:27:06.437Z,101666.25
2022-09-03T00:29:58.277Z,101662.06
2022-09-03T00:32:35.113Z,101655.44
2022-09-03T00:35:06.505Z,101663.69
2022-09-03T00:37:37.986Z,101656.53
2022-09-03T00:40:10.886Z,101659.91
2022-09-03T00:42:45.015Z,101655.44
2022-09-03T00:45:39.134Z,101666.06
2022-09-03T00:48:27.937Z,101658.97
2022-09-03T00:51:12.706Z,101657.22
2022-09-03T00:54:10.766Z,101661.63
2022-09-03T00:56:49.885Z,101666.91
2022-09-03T00:59:39.132Z,101670.09
2022-09-03T01:02:34.146Z,101663.56
2022-09-03T01:05:23.014Z,101659.84
2022-09-03T01:08:14.833Z,101660.75
2022-09-03T01:11:03.521Z,101676.72
2022-09-03T01:13:48.711Z,101673.22
2022-09-03T01:16:35.490Z,101681.88
2022-09-03T01:19:28.873Z,101673.47
2022-09-03T01:22:10.785Z,101679.13
2022-09-03T01:25:15.344Z,101677.75
2022-09-03T01:27:59.653Z,101670.72
2022-09-03T01:30:26.821Z,101667.22
2022-09-03T01:33:35.600Z,101662.00
2022-09-03T01:36:18.392Z,101656.66
2022-09-03T01:38:56.449Z,101651.31
2022-09-03T01:42:12.666Z,101655.78
2022-09-03T01:45:00.993Z,101660.16
2022-09-03T01:47:55.347Z,101661.06
2022-09-03T01:50:34.037Z,101666.28
2022-09-03T01:53:18.391Z,101665.28
2022-09-03T01:56:13.331Z,101667.19
2022-09-03T01:58:47.194Z,101664.53
2022-09-03T02:01:21.052Z,101661.00
2022-09-03T02:03:48.793Z,101668.81
2022-09-03T02:06:15.784Z,101663.59
2022-09-03T02:08:42.554Z,101668.88
2022-09-03T02:11:10.446Z,101668.19
2022-09-03T02:13:44.544Z,101669.19
2022-09-03T02:16:17.481Z,101665.19
2022-09-03T02:18:51.721Z,101663.81
2022-09-03T02:21:21.324Z,101656.84
2022-09-03T02:23:49.592Z,101659.53
2022-09-03T02:26:21.307Z,101666.59
2022-09-03T02:28:48.818Z,101665.09
2022-09-03T02:31:15.875Z,101664.41
2022-09-03T02:33:46.185Z,101666.50
2022-09-03T02:36:18.219Z,101659.66
2022-09-03T02:38:46.413Z,101667.72
2022-09-03T02:41:15.479Z,101664.53
2022-09-03T02:43:51.613Z,101659.38
2022-09-03T02:46:22.896Z,101662.97
2022-09-03T02:48:49.841Z,101663.72
2022-09-03T02:51:16.637Z,101666.09
2022-09-03T02:53:44.568Z,101660.69
2022-09-03T02:56:12.274Z,101655.97
2022-09-03T02:58:39.123Z,101662.81
2022-09-03T03:01:06.142Z,101664.56
2022-09-03T03:03:33.467Z,101653.06
2022-09-03T03:06:02.830Z,101652.25
2022-09-03T03:08:30.398Z,101659.31
2022-09-03T03:10:58.923Z,101652.94
2022-09-03T03:13:27.224Z,101653.88
2022-09-03T03:16:03.201Z,101657.66
2022-09-03T03:18:30.580Z,101664.88
2022-09-03T03:20:57.577Z,101664.41
2022-09-03T03:23:24.321Z,101666.22
2022-09-03T03:25:51.133Z,101664.28
2022-09-03T03:28:20.669Z,101669.59
2022-09-03T03:30:48.627Z,101676.81
2022-09-03T03:33:15.852Z,101675.03
2022-09-03T03:35:42.830Z,101673.28
2022-09-03T03:38:09.909Z,101675.66
2022-09-03T03:40:38.686Z,101676.56
2022-09-03T03:43:05.443Z,101685.66
2022-09-03T03:45:32.378Z,101680.19
2022-09-03T03:47:59.534Z,101687.03
2022-09-03T03:50:26.708Z,101679.03
2022-09-03T03:52:53.463Z,101681.84
2022-09-03T03:55:20.300Z,101685.41
2022-09-03T03:57:47.069Z,101679.09
2022-09-03T04:00:14.905Z,101677.22
2022-09-03T04:02:42.860Z,101680.72
2022-09-03T04:05:10.223Z,101672.72
2022-09-03T04:07:38.395Z,101671.03
2022-09-03T04:10:05.946Z,101672.69
2022-09-03T04:12:33.278Z,101673.66
2022-09-03T04:15:00.062Z,101667.66
2022-09-03T04:17:28.303Z,101668.63
2022-09-03T04:19:55.060Z,101672.28
2022-09-03T04:22:21.913Z,101668.84
2022-09-03T04:24:48.706Z,101664.63
2022-09-03T04:27:15.537Z,101662.69
2022-09-03T04:29:42.314Z,101662.88
2022-09-03T04:32:27.630Z,101667.91
2022-09-03T04:34:54.401Z,101661.97
2022-09-03T04:37:21.434Z,101660.16
2022-09-03T04:39:48.342Z,101660.81
2022-09-03T04:42:15.170Z,101659.94
2022-09-03T04:44:41.960Z,101652.88
2022-09-03T04:47:08.854Z,101653.84
2022-09-03T04:49:35.655Z,101660.81
2022-09-03T04:52:03.468Z,101658.91
2022-09-03T04:54:30.258Z,101654.41
2022-09-03T04:56:57.187Z,101642.09
2022-09-03T04:59:24.039Z,101650.03
2022-09-03T05:01:52.726Z,101656.34
2022-09-03T05:04:19.872Z,101654.59
2022-09-03T05:06:46.816Z,101655.38
2022-09-03T05:09:13.764Z,101664.88
2022-09-03T05:11:40.656Z,101657.72
2022-09-03T05:14:11.711Z,101662.06
2022-09-03T05:16:39.315Z,101657.00
2022-09-03T05:19:08.059Z,101657.91
2022-09-03T05:21:36.178Z,101666.69
2022-09-03T05:24:04.122Z,101649.19
2022-09-03T05:26:36.561Z,101661.69
2022-09-03T05:29:07.822Z,101659.03
2022-09-03T05:31:38.060Z,101661.88
2022-09-03T05:34:06.276Z,101657.41
2022-09-03T05:36:35.603Z,101659.13
2022-09-03T05:39:03.465Z,101650.13
2022-09-03T05:41:30.587Z,101656.41
2022-09-03T05:43:59.772Z,101652.78
2022-09-03T05:46:32.185Z,101657.75
2022-09-03T05:49:04.923Z,101648.78
2022-09-03T05:51:32.956Z,101645.63
2022-09-03T05:54:00.164Z,101643.34
2022-09-03T05:56:30.269Z,101639.09
2022-09-03T05:59:05.487Z,101643.38
2022-09-03T06:01:41.584Z,101635.94
2022-09-03T06:04:15.602Z,101625.47
2022-09-03T06:06:45.023Z,101630.41
2022-09-03T06:09:20.552Z,101630.19
2022-09-03T06:11:50.069Z,101629.03
2022-09-03T06:14:17.598Z,101635.16
2022-09-03T06:16:46.455Z,101633.06
2022-09-03T06:19:14.272Z,101625.56
2022-09-03T06:21:43.592Z,101633.81
2022-09-03T06:24:14.217Z,101617.22
2022-09-03T06:26:42.827Z,101619.72
2022-09-03T06:29:10.574Z,101614.22
2022-09-03T06:31:37.765Z,101619.34
2022-09-03T06:34:05.997Z,101618.44
2022-09-03T06:36:33.007Z,101616.94
2022-09-03T06:39:00.014Z,101612.56
2022-09-03T06:41:32.371Z,101611.00
2022-09-03T06:44:03.436Z,101604.91
2022-09-03T06:46:38.834Z,101609.69
2022-09-03T06:49:06.055Z,101595.34
2022-09-03T06:51:33.577Z,101599.13
2022-09-03T06:54:07.977Z,101594.38
2022-09-03T06:56:40.197Z,101599.84
2022-09-03T06:59:13.067Z,101604.06
2022-09-03T07:01:43.930Z,101594.44
2022-09-03T07:04:12.959Z,101598.66
2022-09-03T07:06:42.370Z,101595.59
2022-09-03T07:09:11.135Z,101595.09
2022-09-03T07:11:40.569Z,101593.72
2022-09-03T07:14:08.097Z,101599.00
2022-09-03T07:16:36.951Z,101592.69
2022-09-03T07:19:07.412Z,101590.69
2022-09-03T07:21:36.884Z,101590.81
2022-09-03T07:24:05.520Z,101593.34
2022-09-03T07:26:38.549Z,101586.28
2022-09-03T07:29:07.878Z,101587.13
2022-09-03T07:31:39.806Z,101591.50
2022-09-03T07:34:12.674Z,101586.59
2022-09-03T07:36:41.849Z,101592.22
2022-09-03T07:39:09.642Z,101580.44
2022-09-03T07:41:36.640Z,101580.94
2022-09-03T07:44:07.232Z,101578.88
2022-09-03T07:46:37.147Z,101580.59
2022-09-03T07:49:05.385Z,101579.13
2022-09-03T07:51:35.766Z,101572.31
2022-09-03T07:54:08.276Z,101571.81
2022-09-03T07:56:35.980Z,101580.00
2022-09-03T07:59:03.411Z,101583.63
2022-09-03T08:01:32.791Z,101579.22
2022-09-03T08:04:00.884Z,101580.25
2022-09-03T08:06:29.666Z,101578.13
2022-09-03T08:09:04.181Z,101582.41
2022-09-03T08:11:39.702Z,101575.53
2022-09-03T08:14:09.061Z,101574.94
2022-09-03T08:16:38.558Z,101588.50
2022-09-03T08:19:05.872Z,101584.53
2022-09-03T08:21:32.842Z,101576.72
2022-09-03T08:24:03.021Z,101575.94
2022-09-03T08:26:32.126Z,101576.16
2022-09-03T08:28:59.518Z,101573.16
2022-09-03T08:31:28.289Z,101577.03
2022-09-03T08:33:57.833Z,101575.97
2022-09-03T08:36:30.334Z,101577.69
2022-09-03T08:38:59.409Z,101574.84
2022-09-03T08:42:15.882Z,101573.41
2022-09-03T08:44:56.783Z,101568.31
2022-09-03T08:47:41.767Z,101563.28
2022-09-03T08:50:28.341Z,101571.47
2022-09-03T08:53:02.136Z,101565.56
2022-09-03T08:55:34.209Z,101567.31
2022-09-03T08:58:09.756Z,101558.91
2022-09-03T09:00:46.568Z,101570.41
2022-09-03T09:03:25.351Z,101569.78
2022-09-03T09:05:57.986Z,101553.03
2022-09-03T09:08:35.231Z,101563.16
2022-09-03T09:11:06.473Z,101568.59
2022-09-03T09:13:58.076Z,101555.34
2022-09-03T09:16:39.163Z,101561.59
2022-09-03T09:19:09.868Z,101554.06
2022-09-03T09:21:55.030Z,101553.72
2022-09-03T09:24:37.229Z,101555.53
2022-09-03T09:27:06.530Z,101552.31
2022-09-03T09:29:36.507Z,101557.94
2022-09-03T09:32:07.121Z,101555.19
2022-09-03T09:34:36.357Z,101554.19
2022-09-03T09:37:11.406Z,101553.19
2022-09-03T09:39:38.227Z,101546.97
2022-09-03T09:42:11.280Z,101553.09
2022-09-03T09:44:40.068Z,101549.56
2022-09-03T09:47:34.730Z,101546.44
2022-09-03T09:50:02.981Z,101541.44
2022-09-03T09:52:31.530Z,101552.56
2022-09-03T09:55:16.163Z,101538.97
2022-09-03T09:57:42.898Z,101542.81
2022-09-03T10:00:16.748Z,101542.75
2022-09-03T10:02:54.681Z,101543.28
2022-09-03T10:05:23.758Z,101550.63
2022-09-03T10:08:01.043Z,101543.53
2022-09-03T10:10:31.921Z,101551.47
2022-09-03T10:13:12.578Z,101548.16
2022-09-03T10:16:03.597Z,101545.25
2022-09-03T10:18:46.216Z,101542.06
2022-09-03T10:21:24.996Z,101541.03
2022-09-03T10:24:07.309Z,101533.97
2022-09-03T10:26:36.800Z,101541.22
2022-09-03T10:29:07.094Z,101529.66
2022-09-03T10:31:54.137Z,101531.00
2022-09-03T10:34:24.600Z,101536.25
2022-09-03T10:37:23.577Z,101538.50
2022-09-03T10:39:56.407Z,101546.69
2022-09-03T10:42:53.676Z,101537.41
2022-09-03T10:45:55.295Z,101528.13
2022-09-03T10:48:47.021Z,101539.88
2022-09-03T10:51:22.396Z,101541.06
2022-09-03T10:54:07.585Z,101535.41
2022-09-03T10:57:19.097Z,101535.75
2022-09-03T11:00:11.265Z,101537.56
2022-09-03T11:02:47.500Z,101522.72
2022-09-03T11:05:20.839Z,101541.28
2022-09-03T11:08:07.850Z,101540.25
2022-09-03T11:10:41.038Z,101540.63
2022-09-03T11:13:17.744Z,101537.31
2022-09-03T11:16:01.195Z,101537.06
2022-09-03T11:18:35.711Z,101536.31
2022-09-03T11:21:11.848Z,101524.06
2022-09-03T11:23:43.631Z,101525.06
2022-09-03T11:26:18.669Z,101500.81
2022-09-03T11:29:13.081Z,101511.59
2022-09-03T11:31:57.909Z,101533.53
2022-09-03T11:34:32.630Z,101522.22
2022-09-03T11:37:16.572Z,101511.56
2022-09-03T11:39:43.774Z,101526.50
2022-09-03T11:42:13.231Z,101522.88
2022-09-03T11:44:51.638Z,101526.25
2022-09-03T11:47:23.005Z,101509.28
2022-09-03T11:49:52.820Z,101516.91
2022-09-03T11:52:32.253Z,101508.03
2022-09-03T11:54:59.310Z,101508.94
2022-09-03T11:57:31.418Z,101511.63
2022-09-03T12:00:14.308Z,101531.47
2022-09-03T12:02:46.923Z,101528.00
2022-09-03T12:05:51.666Z,101511.84
2022-09-03T12:08:53.920Z,101535.09
2022-09-03T12:11:30.483Z,101500.22
2022-09-03T12:14:25.386Z,101519.44
2022-09-03T12:17:11.896Z,101491.34
2022-09-03T12:19:55.236Z,101506.25
2022-09-03T12:22:25.977Z,101503.97
2022-09-03T12:24:52.852Z,101515.63
2022-09-03T12:27:24.201Z,101511.25
2022-09-03T12:30:02.626Z,101510.34
2022-09-03T12:32:40.277Z,101504.19
2022-09-03T12:38:11.230Z,101506.09
2022-09-03T12:43:49.914Z,101494.91
2022-09-03T12:46:18.037Z,101500.59
2022-09-03T12:51:48.980Z,101502.47
2022-09-03T12:54:17.696Z,101504.06
2022-09-03T12:56:50.969Z,101489.09
2022-09-03T12:59:20.156Z,101504.81
2022-09-03T13:01:52.188Z,101481.78
2022-09-03T13:04:26.798Z,101501.31
2022-09-03T13:07:05.192Z,101485.28
2022-09-03T13:09:37.706Z,101491.09
2022-09-03T13:12:05.878Z,101489.25
2022-09-03T13:14:48.401Z,101475.97
2022-09-03T13:17:56.433Z,101481.09
2022-09-03T13:20:29.348Z,101487.00
2022-09-03T13:23:11.926Z,101489.78
2022-09-03T13:25:55.375Z,101488.50
2022-09-03T13:28:31.870Z,101482.41
2022-09-03T13:31:09.424Z,101475.22
2022-09-03T13:33:45.603Z,101471.66
2022-09-03T13:36:19.127Z,101480.72
2022-09-03T13:38:56.771Z,101468.19
2022-09-03T13:41:46.581Z,101469.97
2022-09-03T13:44:40.734Z,101485.97
2022-09-03T13:47:36.124Z,101479.16
2022-09-03T13:50:22.438Z,101490.59
2022-09-03T13:53:18.958Z,101475.00
2022-09-03T13:55:55.442Z,101474.88
2022-09-03T13:58:30.665Z,101464.59
2022-09-03T14:00:58.397Z,101465.31
2022-09-03T14:03:48.749Z,101470.81
2022-09-03T14:06:43.073Z,101468.91
2022-09-03T14:09:54.540Z,101458.13
2022-09-03T14:12:36.183Z,101478.13
2022-09-03T14:15:15.738Z,101458.97
2022-09-03T14:18:13.520Z,101478.78
2022-09-03T14:21:03.989Z,101461.09
2022-09-03T14:23:46.662Z,101464.59
2022-09-03T14:26:38.735Z,101475.22
2022-09-03T14:29:12.680Z,101476.19
2022-09-03T14:32:05.439Z,101474.06
2022-09-03T14:34:35.527Z,101471.41
2022-09-03T14:37:18.419Z,101475.84
2022-09-03T14:40:19.230Z,101459.81
2022-09-03T14:43:20.270Z,101454.72
2022-09-03T14:46:06.351Z,101463.47
2022-09-03T14:49:00.545Z,101455.59
2022-09-03T14:51:55.069Z,101463.00
2022-09-03T14:54:35.863Z,101455.81
2022-09-03T14:57:24.519Z,101457.16
2022-09-03T15:00:19.949Z,101468.47
2022-09-03T15:02:47.015Z,101467.53
2022-09-03T15:05:51.753Z,101469.69
2022-09-03T15:08:43.124Z,101461.09
2022-09-03T15:11:20.024Z,101463.34
2022-09-03T15:14:03.277Z,101456.97
2022-09-03T15:16:49.754Z,101470.22
2022-09-03T15:19:28.695Z,101452.09
2022-09-03T15:22:13.979Z,101458.94
2022-09-03T15:25:02.903Z,101468.94
2022-09-03T15:27:51.091Z,101474.28
2022-09-03T15:30:20.178Z,101467.34
2022-09-03T15:32:55.750Z,101471.91
2022-09-03T15:35:41.422Z,101461.59
2022-09-03T15:38:25.038Z,101471.19
2022-09-03T15:40:57.119Z,101455.59
2022-09-03T15:43:30.397Z,101448.09
2022-09-03T15:46:10.742Z,101453.19
2022-09-03T15:48:44.652Z,101447.38
2022-09-03T15:51:27.148Z,101448.03
2022-09-03T15:54:25.297Z,101440.50
2022-09-03T15:57:24.428Z,101447.19
2022-09-03T16:00:21.215Z,101452.31
2022-09-03T16:02:52.402Z,101450.97
2022-09-03T16:05:39.423Z,101450.81
2022-09-03T16:08:48.263Z,101444.13
2022-09-03T16:11:35.082Z,101441.22
2022-09-03T16:14:13.409Z,101451.22
2022-09-03T16:17:02.733Z,101449.72
2022-09-03T16:19:44.876Z,101443.75
2022-09-03T16:22:26.924Z,101446.06
2022-09-03T16:25:44.307Z,101445.72
2022-09-03T16:28:16.726Z,101452.69
2022-09-03T16:30:49.582Z,101446.81
2022-09-03T16:33:27.834Z,101439.97
2022-09-03T16:36:14.848Z,101445.59
2022-09-03T16:39:13.685Z,101443.88
2022-09-03T16:41:58.933Z,101436.59
2022-09-03T16:45:30.525Z,101441.47
2022-09-03T16:48:18.610Z,101441.31
2022-09-03T16:50:54.132Z,101440.84
2022-09-03T16:53:42.452Z,101446.94
2022-09-03T16:56:21.431Z,101443.09
2022-09-03T16:58:57.665Z,101439.94
2022-09-03T17:01:55.642Z,101442.75
2022-09-03T17:04:22.458Z,101442.59
2022-09-03T17:06:52.153Z,101444.28
2022-09-03T17:09:46.894Z,101444.13
2022-09-03T17:12:19.433Z,101446.75
2022-09-03T17:14:53.887Z,101439.75
2022-09-03T17:17:29.921Z,101437.84
2022-09-03T17:20:21.576Z,101439.13
2022-09-03T17:23:05.276Z,101445.47
2022-09-03T17:25:37.209Z,101442.25
2022-09-03T17:28:35.396Z,101447.25
2022-09-03T17:31:24.785Z,101445.59
2022-09-03T17:34:06.947Z,101444.88
2022-09-03T17:36:38.454Z,101443.75
2022-09-03T17:39:23.808Z,101452.31
2022-09-03T17:41:53.746Z,101449.50
2022-09-03T17:44:30.790Z,101455.25
2022-09-03T17:47:35.924Z,101461.06
2022-09-03T17:50:11.450Z,101459.13
2022-09-03T17:52:48.562Z,101457.81
2022-09-03T17:55:33.948Z,101456.53
2022-09-03T17:58:14.606Z,101465.06
2022-09-03T18:00:56.857Z,101466.00
2022-09-03T18:03:41.575Z,101469.19
2022-09-03T18:06:19.455Z,101472.38
2022-09-03T18:08:51.543Z,101479.34
2022-09-03T18:11:28.772Z,101482.03
2022-09-03T18:14:22.711Z,101482.03
2022-09-03T18:17:03.207Z,101480.16
2022-09-03T18:20:24.240Z,101484.63
2022-09-03T18:23:38.842Z,101482.97
2022-09-03T18:26:32.279Z,101484.03
2022-09-03T18:29:35.042Z,101488.47
2022-09-03T18:32:20.473Z,101499.50
2022-09-03T18:35:06.402Z,101509.47
2022-09-03T18:37:51.700Z,101511.28
2022-09-03T18:40:44.852Z,101514.50
2022-09-03T18:43:42.388Z,101520.50
2022-09-03T18:48:00.996Z,101530.19
2022-09-03T18:50:17.373Z,101535.44
2022-09-03T18:53:20.619Z,101540.66
2022-09-03T18:56:15.560Z,101544.56
2022-09-03T18:59:10.130Z,101542.72
2022-09-03T19:01:58.602Z,101544.44
2022-09-03T19:05:04.130Z,101545.16
2022-09-03T19:08:00.709Z,101540.88
2022-09-03T19:11:00.747Z,101543.31
2022-09-03T19:13:51.854Z,101552.84
2022-09-03T19:16:44.381Z,101564.59
2022-09-03T19:20:03.510Z,101562.53
2022-09-03T19:22:54.401Z,101557.91
2022-09-03T19:25:40.819Z,101569.50
2022-09-03T19:28:50.010Z,101578.59
2022-09-03T19:32:13.121Z,101583.25
2022-09-03T19:35:13.541Z,101581.25
2022-09-03T19:38:37.483Z,101592.56
2022-09-03T19:41:31.948Z,101589.81
2022-09-03T19:44:23.479Z,101595.22
2022-09-03T19:47:16.925Z,101596.41
2022-09-03T19:50:21.211Z,101597.00
2022-09-03T19:53:06.947Z,101604.91
2022-09-03T19:56:05.185Z,101605.13
2022-09-03T19:58:56.525Z,101608.56
2022-09-03T20:01:48.136Z,101603.91
2022-09-03T20:04:34.915Z,101607.34
2022-09-03T20:07:23.405Z,101606.06
2022-09-03T20:10:12.274Z,101605.28
2022-09-03T20:12:43.404Z,101609.84
2022-09-03T20:15:10.677Z,101610.84
2022-09-03T20:17:56.149Z,101609.91
2022-09-03T20:20:44.143Z,101613.78
2022-09-03T20:23:18.820Z,101613.00
2022-09-03T20:26:27.467Z,101614.69
2022-09-03T20:29:12.432Z,101618.66
2022-09-03T20:31:55.572Z,101616.31
2022-09-03T20:34:25.340Z,101615.47
2022-09-03T20:37:17.173Z,101611.53
2022-09-03T20:40:08.232Z,101616.09
2022-09-03T20:42:50.604Z,101622.34
2022-09-03T20:45:21.631Z,101621.25
2022-09-03T20:48:11.142Z,101624.69
2022-09-03T20:50:43.243Z,101627.84
2022-09-03T20:53:38.236Z,101628.75
2022-09-03T20:56:28.321Z,101631.34
2022-09-03T20:59:09.935Z,101635.63
2022-09-03T21:01:50.934Z,101634.06
2022-09-03T21:04:26.422Z,101639.69
2022-09-03T21:07:22.815Z,101641.50
2022-09-03T21:10:05.434Z,101633.59
2022-09-03T21:12:54.292Z,101638.78
2022-09-03T21:15:24.297Z,101648.78
2022-09-03T21:18:28.772Z,101655.97
2022-09-03T21:21:17.348Z,101658.53
2022-09-03T21:23:48.493Z,101656.19
2022-09-03T21:26:29.258Z,101662.03
2022-09-03T21:29:06.833Z,101665.69
2022-09-03T21:31:48.971Z,101672.03
2022-09-03T21:34:20.817Z,101674.97
2022-09-03T21:36:49.286Z,101682.53
2022-09-03T21:39:34.787Z,101681.09
2022-09-03T21:42:13.908Z,101694.91
2022-09-03T21:44:40.600Z,101692.31
2022-09-03T21:47:18.898Z,101688.84
2022-09-03T21:50:11.935Z,101694.16
2022-09-03T21:52:44.713Z,101696.91
2022-09-03T21:55:24.832Z,101690.28
2022-09-03T21:58:10.369Z,101687.25
2022-09-03T22:00:37.814Z,101696.31
2022-09-03T22:03:07.917Z,101692.28
2022-09-03T22:05:50.877Z,101693.44
2022-09-03T22:08:25.575Z,101688.63
2022-09-03T22:11:10.765Z,101697.84
2022-09-03T22:14:01.923Z,101691.19
2022-09-03T22:16:38.397Z,101698.44
2022-09-03T22:19:07.852Z,101692.75
2022-09-03T22:21:58.392Z,101700.06
2022-09-03T22:24:43.708Z,101701.41
2022-09-03T22:27:38.652Z,101693.88
2022-09-03T22:30:20.231Z,101703.22
2022-09-03T22:33:11.936Z,101698.19
2022-09-03T22:35:49.809Z,101696.59
2022-09-03T22:38:50.411Z,101690.03
2022-09-03T22:41:48.257Z,101692.75
2022-09-03T22:44:26.808Z,101689.38
2022-09-03T22:47:26.544Z,101693.88
2022-09-03T22:49:59.149Z,101699.03
2022-09-03T22:52:39.583Z,101695.78
2022-09-03T22:55:14.829Z,101696.91
2022-09-03T22:58:03.429Z,101707.84
2022-09-03T23:00:34.350Z,101702.75
2022-09-03T23:03:08.581Z,101704.81
2022-09-03T23:06:02.335Z,101698.72
2022-09-03T23:08:51.923Z,101700.50
2022-09-03T23:11:31.175Z,101706.84
2022-09-03T23:14:36.736Z,101711.22
2022-09-03T23:17:13.321Z,101716.66
2022-09-03T23:19:45.127Z,101716.66
2022-09-03T23:22:25.497Z,101714.44
2022-09-03T23:25:01.803Z,101715.53
2022-09-03T23:27:50.488Z,101710.25
2022-09-03T23:30:17.377Z,101723.75
2022-09-03T23:32:44.133Z,101722.19
2022-09-03T23:35:18.157Z,101718.91
2022-09-03T23:37:53.846Z,101727.69
2022-09-03T23:40:38.726Z,101730.34
2022-09-03T23:43:43.027Z,101728.22
2022-09-03T23:46:24.768Z,101718.63
2022-09-03T23:49:04.425Z,101714.50
2022-09-03T23:51:38.820Z,101725.31
2022-09-03T23:54:37.697Z,101728.13
2022-09-03T23:57:17.822Z,101726.53
